sensor_id;sensor_type;location;lat;lon;timestamp;P1;durP1;ratioP1;P2;durP2;ratioP2
13325;SDS011;6732;51.044;3.746;2022-12-08T00:02:06;11.27;;;9.47;;
13325;SDS011;6732;51.044;3.746;2022-12-08T00:04:32;10.90;;;9.67;;
13325;SDS011;6732;51.044;3.746;2022-12-08T00:07:18;13.43;;;8.83;;
13325;SDS011;6732;51.044;3.746;2022-12-08T00:10:02;12.87;;;8.50;;
13325;SDS011;6732;51.044;3.746;2022-12-08T00:12:29;12.00;;;8.93;;
13325;SDS011;6732;51.044;3.746;2022-12-08T00:14:54;10.33;;;8.17;;
13325;SDS011;6732;51.044;3.746;2022-12-08T00:17:20;13.67;;;8.60;;
13325;SDS011;6732;51.044;3.746;2022-12-08T00:19:46;10.70;;;8.40;;
13325;SDS011;6732;51.044;3.746;2022-12-08T00:22:13;13.27;;;8.43;;
13325;SDS011;6732;51.044;3.746;2022-12-08T00:24:40;12.20;;;9.00;;
13325;SDS011;6732;51.044;3.746;2022-12-08T00:27:09;12.87;;;8.60;;
13325;SDS011;6732;51.044;3.746;2022-12-08T00:29:36;10.30;;;8.10;;
13325;SDS011;6732;51.044;3.746;2022-12-08T00:32:03;13.47;;;8.83;;
13325;SDS011;6732;51.044;3.746;2022-12-08T00:34:30;12.63;;;8.50;;
13325;SDS011;6732;51.044;3.746;2022-12-08T00:36:57;11.20;;;8.73;;
13325;SDS011;6732;51.044;3.746;2022-12-08T00:39:23;10.50;;;8.80;;
13325;SDS011;6732;51.044;3.746;2022-12-08T00:41:49;9.67;;;8.67;;
13325;SDS011;6732;51.044;3.746;2022-12-08T00:44:34;12.10;;;8.73;;
13325;SDS011;6732;51.044;3.746;2022-12-08T00:47:00;11.87;;;9.00;;
13325;SDS011;6732;51.044;3.746;2022-12-08T00:49:25;12.20;;;9.67;;
13325;SDS011;6732;51.044;3.746;2022-12-08T00:51:51;13.60;;;9.60;;
13325;SDS011;6732;51.044;3.746;2022-12-08T00:54:17;12.23;;;10.20;;
13325;SDS011;6732;51.044;3.746;2022-12-08T00:56:44;16.07;;;11.30;;
13325;SDS011;6732;51.044;3.746;2022-12-08T00:59:10;12.30;;;10.93;;
13325;SDS011;6732;51.044;3.746;2022-12-08T01:01:36;14.77;;;11.63;;
13325;SDS011;6732;51.044;3.746;2022-12-08T01:04:03;12.57;;;10.80;;
13325;SDS011;6732;51.044;3.746;2022-12-08T01:06:30;14.67;;;10.97;;
13325;SDS011;6732;51.044;3.746;2022-12-08T01:08:56;14.47;;;11.40;;
13325;SDS011;6732;51.044;3.746;2022-12-08T01:11:22;14.60;;;10.73;;
13325;SDS011;6732;51.044;3.746;2022-12-08T01:13:48;14.77;;;10.57;;
13325;SDS011;6732;51.044;3.746;2022-12-08T01:16:20;11.97;;;10.20;;
13325;SDS011;6732;51.044;3.746;2022-12-08T01:18:48;14.10;;;10.40;;
13325;SDS011;6732;51.044;3.746;2022-12-08T01:21:13;13.03;;;9.60;;
13325;SDS011;6732;51.044;3.746;2022-12-08T01:23:40;13.10;;;9.70;;
13325;SDS011;6732;51.044;3.746;2022-12-08T01:26:07;12.93;;;9.70;;
13325;SDS011;6732;51.044;3.746;2022-12-08T01:28:35;11.87;;;10.00;;
13325;SDS011;6732;51.044;3.746;2022-12-08T01:31:01;11.27;;;9.90;;
13325;SDS011;6732;51.044;3.746;2022-12-08T01:33:28;12.07;;;10.60;;
13325;SDS011;6732;51.044;3.746;2022-12-08T01:35:54;12.97;;;9.07;;
13325;SDS011;6732;51.044;3.746;2022-12-08T01:38:20;16.13;;;9.73;;
13325;SDS011;6732;51.044;3.746;2022-12-08T01:40:47;12.03;;;9.73;;
13325;SDS011;6732;51.044;3.746;2022-12-08T01:43:18;12.70;;;10.10;;
13325;SDS011;6732;51.044;3.746;2022-12-08T01:45:45;12.57;;;9.90;;
13325;SDS011;6732;51.044;3.746;2022-12-08T01:48:19;16.13;;;10.97;;
13325;SDS011;6732;51.044;3.746;2022-12-08T01:50:49;12.13;;;10.03;;
13325;SDS011;6732;51.044;3.746;2022-12-08T01:53:22;12.97;;;9.70;;
13325;SDS011;6732;51.044;3.746;2022-12-08T01:55:53;12.90;;;10.07;;
13325;SDS011;6732;51.044;3.746;2022-12-08T01:58:27;12.97;;;10.50;;
13325;SDS011;6732;51.044;3.746;2022-12-08T02:00:56;13.80;;;10.57;;
13325;SDS011;6732;51.044;3.746;2022-12-08T02:03:24;14.27;;;10.20;;
13325;SDS011;6732;51.044;3.746;2022-12-08T02:05:53;10.63;;;9.23;;
13325;SDS011;6732;51.044;3.746;2022-12-08T02:08:19;11.27;;;9.30;;
13325;SDS011;6732;51.044;3.746;2022-12-08T02:10:47;11.47;;;9.60;;
13325;SDS011;6732;51.044;3.746;2022-12-08T02:13:16;11.97;;;9.40;;
13325;SDS011;6732;51.044;3.746;2022-12-08T02:21:38;11.00;;;9.30;;
13325;SDS011;6732;51.044;3.746;2022-12-08T02:35:35;12.07;;;8.93;;
13325;SDS011;6732;51.044;3.746;2022-12-08T02:40:40;9.90;;;7.87;;
13325;SDS011;6732;51.044;3.746;2022-12-08T02:43:19;11.27;;;8.20;;
13325;SDS011;6732;51.044;3.746;2022-12-08T02:46:00;10.27;;;7.90;;
13325;SDS011;6732;51.044;3.746;2022-12-08T02:48:31;9.53;;;7.90;;
13325;SDS011;6732;51.044;3.746;2022-12-08T02:50:58;12.77;;;7.90;;
13325;SDS011;6732;51.044;3.746;2022-12-08T02:53:25;9.90;;;8.07;;
13325;SDS011;6732;51.044;3.746;2022-12-08T03:01:50;9.63;;;6.23;;
13325;SDS011;6732;51.044;3.746;2022-12-08T03:04:13;9.80;;;6.07;;
13325;SDS011;6732;51.044;3.746;2022-12-08T03:12:17;5.90;;;4.70;;
13325;SDS011;6732;51.044;3.746;2022-12-08T03:14:52;6.23;;;4.10;;
13325;SDS011;6732;51.044;3.746;2022-12-08T03:17:22;4.90;;;4.30;;
13325;SDS011;6732;51.044;3.746;2022-12-08T03:19:50;6.50;;;5.23;;
13325;SDS011;6732;51.044;3.746;2022-12-08T03:22:18;7.17;;;4.67;;
13325;SDS011;6732;51.044;3.746;2022-12-08T03:24:48;5.80;;;4.87;;
13325;SDS011;6732;51.044;3.746;2022-12-08T03:27:15;5.63;;;5.07;;
13325;SDS011;6732;51.044;3.746;2022-12-08T03:29:44;10.37;;;5.70;;
13325;SDS011;6732;51.044;3.746;2022-12-08T03:32:24;7.87;;;5.80;;
13325;SDS011;6732;51.044;3.746;2022-12-08T03:34:59;7.60;;;5.60;;
13325;SDS011;6732;51.044;3.746;2022-12-08T03:37:28;8.77;;;6.23;;
13325;SDS011;6732;51.044;3.746;2022-12-08T03:39:54;8.50;;;6.13;;
13325;SDS011;6732;51.044;3.746;2022-12-08T03:42:20;9.03;;;6.40;;
13325;SDS011;6732;51.044;3.746;2022-12-08T03:44:47;6.60;;;5.90;;
13325;SDS011;6732;51.044;3.746;2022-12-08T03:47:13;9.20;;;6.80;;
13325;SDS011;6732;51.044;3.746;2022-12-08T03:49:39;9.57;;;7.10;;
13325;SDS011;6732;51.044;3.746;2022-12-08T03:52:05;8.07;;;6.30;;
13325;SDS011;6732;51.044;3.746;2022-12-08T03:54:30;9.77;;;7.30;;
13325;SDS011;6732;51.044;3.746;2022-12-08T03:56:56;9.17;;;7.60;;
13325;SDS011;6732;51.044;3.746;2022-12-08T03:59:22;12.03;;;8.97;;
13325;SDS011;6732;51.044;3.746;2022-12-08T04:01:48;12.00;;;9.77;;
13325;SDS011;6732;51.044;3.746;2022-12-08T04:04:14;13.73;;;9.97;;
13325;SDS011;6732;51.044;3.746;2022-12-08T04:06:40;14.03;;;10.77;;
13325;SDS011;6732;51.044;3.746;2022-12-08T04:09:06;13.83;;;10.33;;
13325;SDS011;6732;51.044;3.746;2022-12-08T04:11:32;13.90;;;9.93;;
13325;SDS011;6732;51.044;3.746;2022-12-08T04:13:57;13.13;;;9.83;;
13325;SDS011;6732;51.044;3.746;2022-12-08T04:16:23;14.33;;;9.90;;
13325;SDS011;6732;51.044;3.746;2022-12-08T04:18:52;11.97;;;8.83;;
13325;SDS011;6732;51.044;3.746;2022-12-08T04:21:18;12.23;;;9.20;;
13325;SDS011;6732;51.044;3.746;2022-12-08T04:23:44;12.57;;;9.43;;
13325;SDS011;6732;51.044;3.746;2022-12-08T04:26:11;10.87;;;8.97;;
13325;SDS011;6732;51.044;3.746;2022-12-08T04:28:38;13.10;;;9.00;;
13325;SDS011;6732;51.044;3.746;2022-12-08T04:31:03;12.67;;;9.37;;
13325;SDS011;6732;51.044;3.746;2022-12-08T04:33:30;10.33;;;8.33;;
13325;SDS011;6732;51.044;3.746;2022-12-08T04:35:56;12.93;;;8.97;;
13325;SDS011;6732;51.044;3.746;2022-12-08T04:38:22;13.23;;;8.97;;
13325;SDS011;6732;51.044;3.746;2022-12-08T04:40:48;11.17;;;9.03;;
13325;SDS011;6732;51.044;3.746;2022-12-08T04:43:14;13.43;;;10.20;;
13325;SDS011;6732;51.044;3.746;2022-12-08T04:45:40;15.00;;;10.40;;
13325;SDS011;6732;51.044;3.746;2022-12-08T04:48:07;13.10;;;10.03;;
13325;SDS011;6732;51.044;3.746;2022-12-08T04:50:34;13.43;;;9.30;;
13325;SDS011;6732;51.044;3.746;2022-12-08T04:53:00;13.53;;;8.80;;
13325;SDS011;6732;51.044;3.746;2022-12-08T04:55:26;13.60;;;10.30;;
13325;SDS011;6732;51.044;3.746;2022-12-08T04:57:52;16.50;;;10.60;;
13325;SDS011;6732;51.044;3.746;2022-12-08T05:00:18;14.70;;;9.67;;
13325;SDS011;6732;51.044;3.746;2022-12-08T05:02:44;11.07;;;9.57;;
13325;SDS011;6732;51.044;3.746;2022-12-08T05:05:10;13.77;;;10.00;;
13325;SDS011;6732;51.044;3.746;2022-12-08T05:07:36;11.90;;;9.73;;
13325;SDS011;6732;51.044;3.746;2022-12-08T05:10:02;13.20;;;9.77;;
13325;SDS011;6732;51.044;3.746;2022-12-08T05:12:28;15.00;;;10.53;;
13325;SDS011;6732;51.044;3.746;2022-12-08T05:14:54;14.70;;;10.70;;
13325;SDS011;6732;51.044;3.746;2022-12-08T05:17:20;18.27;;;11.17;;
13325;SDS011;6732;51.044;3.746;2022-12-08T05:19:46;13.70;;;10.67;;
13325;SDS011;6732;51.044;3.746;2022-12-08T05:22:12;14.27;;;10.97;;
13325;SDS011;6732;51.044;3.746;2022-12-08T05:24:38;15.90;;;10.40;;
13325;SDS011;6732;51.044;3.746;2022-12-08T05:27:04;13.27;;;10.43;;
13325;SDS011;6732;51.044;3.746;2022-12-08T05:29:30;14.53;;;10.80;;
13325;SDS011;6732;51.044;3.746;2022-12-08T05:31:55;14.60;;;10.67;;
13325;SDS011;6732;51.044;3.746;2022-12-08T05:34:21;13.50;;;10.47;;
13325;SDS011;6732;51.044;3.746;2022-12-08T05:36:47;13.80;;;9.87;;
13325;SDS011;6732;51.044;3.746;2022-12-08T05:39:13;15.57;;;10.40;;
13325;SDS011;6732;51.044;3.746;2022-12-08T05:41:40;14.13;;;10.37;;
13325;SDS011;6732;51.044;3.746;2022-12-08T05:44:05;12.27;;;10.60;;
13325;SDS011;6732;51.044;3.746;2022-12-08T05:46:32;12.13;;;9.90;;
13325;SDS011;6732;51.044;3.746;2022-12-08T05:48:58;12.03;;;10.03;;
13325;SDS011;6732;51.044;3.746;2022-12-08T05:51:25;15.20;;;10.20;;
13325;SDS011;6732;51.044;3.746;2022-12-08T05:53:52;14.67;;;12.73;;
13325;SDS011;6732;51.044;3.746;2022-12-08T05:56:21;14.97;;;10.53;;
13325;SDS011;6732;51.044;3.746;2022-12-08T05:58:47;14.23;;;10.40;;
13325;SDS011;6732;51.044;3.746;2022-12-08T06:01:21;14.97;;;10.17;;
13325;SDS011;6732;51.044;3.746;2022-12-08T06:03:48;14.10;;;9.90;;
13325;SDS011;6732;51.044;3.746;2022-12-08T06:06:14;13.47;;;10.30;;
13325;SDS011;6732;51.044;3.746;2022-12-08T06:08:40;12.37;;;9.80;;
13325;SDS011;6732;51.044;3.746;2022-12-08T06:11:06;13.00;;;10.00;;
13325;SDS011;6732;51.044;3.746;2022-12-08T06:13:32;13.03;;;9.43;;
13325;SDS011;6732;51.044;3.746;2022-12-08T06:16:03;13.13;;;10.33;;
13325;SDS011;6732;51.044;3.746;2022-12-08T06:18:32;10.80;;;9.67;;
13325;SDS011;6732;51.044;3.746;2022-12-08T06:21:01;13.57;;;9.80;;
13325;SDS011;6732;51.044;3.746;2022-12-08T06:23:28;13.53;;;10.20;;
13325;SDS011;6732;51.044;3.746;2022-12-08T06:25:54;12.03;;;9.33;;
13325;SDS011;6732;51.044;3.746;2022-12-08T06:28:26;12.27;;;9.60;;
13325;SDS011;6732;51.044;3.746;2022-12-08T06:30:52;13.67;;;9.70;;
13325;SDS011;6732;51.044;3.746;2022-12-08T06:33:18;14.27;;;9.80;;
13325;SDS011;6732;51.044;3.746;2022-12-08T06:35:44;12.20;;;9.03;;
13325;SDS011;6732;51.044;3.746;2022-12-08T06:38:10;11.17;;;8.47;;
13325;SDS011;6732;51.044;3.746;2022-12-08T06:40:36;10.27;;;8.63;;
13325;SDS011;6732;51.044;3.746;2022-12-08T06:43:02;12.43;;;9.00;;
13325;SDS011;6732;51.044;3.746;2022-12-08T06:45:28;10.90;;;8.53;;
13325;SDS011;6732;51.044;3.746;2022-12-08T06:47:54;9.53;;;8.30;;
13325;SDS011;6732;51.044;3.746;2022-12-08T06:50:19;10.93;;;9.17;;
13325;SDS011;6732;51.044;3.746;2022-12-08T06:52:45;14.37;;;8.70;;
13325;SDS011;6732;51.044;3.746;2022-12-08T06:55:11;11.70;;;8.70;;
13325;SDS011;6732;51.044;3.746;2022-12-08T06:57:37;11.93;;;8.43;;
13325;SDS011;6732;51.044;3.746;2022-12-08T07:00:04;12.60;;;8.90;;
13325;SDS011;6732;51.044;3.746;2022-12-08T07:02:31;11.87;;;8.90;;
13325;SDS011;6732;51.044;3.746;2022-12-08T07:04:57;10.00;;;7.77;;
13325;SDS011;6732;51.044;3.746;2022-12-08T07:07:23;11.10;;;8.40;;
13325;SDS011;6732;51.044;3.746;2022-12-08T07:09:49;12.53;;;8.00;;
13325;SDS011;6732;51.044;3.746;2022-12-08T07:12:15;11.33;;;7.97;;
13325;SDS011;6732;51.044;3.746;2022-12-08T07:14:41;12.00;;;8.37;;
13325;SDS011;6732;51.044;3.746;2022-12-08T07:17:06;13.23;;;8.10;;
13325;SDS011;6732;51.044;3.746;2022-12-08T07:19:32;13.20;;;8.30;;
13325;SDS011;6732;51.044;3.746;2022-12-08T07:21:58;12.03;;;8.23;;
13325;SDS011;6732;51.044;3.746;2022-12-08T07:24:24;12.63;;;7.97;;
13325;SDS011;6732;51.044;3.746;2022-12-08T07:26:50;10.10;;;7.30;;
13325;SDS011;6732;51.044;3.746;2022-12-08T07:29:16;11.27;;;7.07;;
13325;SDS011;6732;51.044;3.746;2022-12-08T07:31:42;10.10;;;6.73;;
13325;SDS011;6732;51.044;3.746;2022-12-08T07:34:08;9.33;;;6.40;;
13325;SDS011;6732;51.044;3.746;2022-12-08T07:36:36;9.53;;;5.93;;
13325;SDS011;6732;51.044;3.746;2022-12-08T07:39:02;10.57;;;5.33;;
13325;SDS011;6732;51.044;3.746;2022-12-08T07:41:28;8.93;;;5.00;;
13325;SDS011;6732;51.044;3.746;2022-12-08T07:43:55;7.50;;;5.00;;
13325;SDS011;6732;51.044;3.746;2022-12-08T07:46:22;9.07;;;4.50;;
13325;SDS011;6732;51.044;3.746;2022-12-08T07:48:49;6.03;;;4.27;;
13325;SDS011;6732;51.044;3.746;2022-12-08T07:51:19;8.03;;;4.07;;
13325;SDS011;6732;51.044;3.746;2022-12-08T07:53:45;5.13;;;3.60;;
13325;SDS011;6732;51.044;3.746;2022-12-08T07:56:13;7.70;;;3.37;;
13325;SDS011;6732;51.044;3.746;2022-12-08T07:58:39;7.43;;;2.83;;
13325;SDS011;6732;51.044;3.746;2022-12-08T08:01:06;3.63;;;2.67;;
13325;SDS011;6732;51.044;3.746;2022-12-08T08:03:42;5.73;;;2.70;;
13325;SDS011;6732;51.044;3.746;2022-12-08T08:06:07;3.07;;;2.20;;
13325;SDS011;6732;51.044;3.746;2022-12-08T08:08:33;4.40;;;1.90;;
13325;SDS011;6732;51.044;3.746;2022-12-08T08:10:59;6.03;;;2.13;;
13325;SDS011;6732;51.044;3.746;2022-12-08T08:13:25;4.77;;;2.30;;
13325;SDS011;6732;51.044;3.746;2022-12-08T08:15:51;3.97;;;2.03;;
13325;SDS011;6732;51.044;3.746;2022-12-08T08:18:18;5.30;;;2.47;;
13325;SDS011;6732;51.044;3.746;2022-12-08T08:20:44;3.43;;;2.20;;
13325;SDS011;6732;51.044;3.746;2022-12-08T08:23:09;7.10;;;3.00;;
13325;SDS011;6732;51.044;3.746;2022-12-08T08:25:35;6.03;;;3.13;;
13325;SDS011;6732;51.044;3.746;2022-12-08T08:28:01;5.00;;;3.13;;
13325;SDS011;6732;51.044;3.746;2022-12-08T08:30:27;6.47;;;3.10;;
13325;SDS011;6732;51.044;3.746;2022-12-08T08:32:53;4.93;;;3.60;;
13325;SDS011;6732;51.044;3.746;2022-12-08T08:35:19;5.80;;;3.97;;
13325;SDS011;6732;51.044;3.746;2022-12-08T08:37:44;6.23;;;4.67;;
13325;SDS011;6732;51.044;3.746;2022-12-08T08:40:10;8.00;;;4.80;;
13325;SDS011;6732;51.044;3.746;2022-12-08T08:42:36;7.33;;;5.70;;
13325;SDS011;6732;51.044;3.746;2022-12-08T08:45:02;10.27;;;6.43;;
13325;SDS011;6732;51.044;3.746;2022-12-08T08:47:28;12.10;;;7.77;;
13325;SDS011;6732;51.044;3.746;2022-12-08T08:49:54;14.97;;;9.00;;
13325;SDS011;6732;51.044;3.746;2022-12-08T08:52:20;12.47;;;8.90;;
13325;SDS011;6732;51.044;3.746;2022-12-08T08:54:46;17.50;;;10.63;;
13325;SDS011;6732;51.044;3.746;2022-12-08T08:57:12;14.60;;;11.20;;
13325;SDS011;6732;51.044;3.746;2022-12-08T08:59:38;18.23;;;11.10;;
13325;SDS011;6732;51.044;3.746;2022-12-08T09:02:04;14.23;;;10.70;;
13325;SDS011;6732;51.044;3.746;2022-12-08T09:04:30;19.17;;;11.50;;
13325;SDS011;6732;51.044;3.746;2022-12-08T09:06:56;17.00;;;12.10;;
13325;SDS011;6732;51.044;3.746;2022-12-08T09:09:22;16.27;;;11.90;;
13325;SDS011;6732;51.044;3.746;2022-12-08T09:11:47;15.33;;;11.93;;
13325;SDS011;6732;51.044;3.746;2022-12-08T09:14:13;15.97;;;11.00;;
13325;SDS011;6732;51.044;3.746;2022-12-08T09:16:40;18.80;;;12.03;;
13325;SDS011;6732;51.044;3.746;2022-12-08T09:19:06;16.23;;;11.10;;
13325;SDS011;6732;51.044;3.746;2022-12-08T09:21:32;15.93;;;11.27;;
13325;SDS011;6732;51.044;3.746;2022-12-08T09:23:58;19.27;;;12.33;;
13325;SDS011;6732;51.044;3.746;2022-12-08T09:26:25;17.50;;;12.27;;
13325;SDS011;6732;51.044;3.746;2022-12-08T09:28:52;24.33;;;13.37;;
13325;SDS011;6732;51.044;3.746;2022-12-08T09:31:21;17.33;;;12.97;;
13325;SDS011;6732;51.044;3.746;2022-12-08T09:33:47;17.97;;;12.33;;
13325;SDS011;6732;51.044;3.746;2022-12-08T09:36:15;19.47;;;12.60;;
13325;SDS011;6732;51.044;3.746;2022-12-08T09:38:42;14.63;;;11.83;;
13325;SDS011;6732;51.044;3.746;2022-12-08T09:43:59;19.23;;;12.63;;
13325;SDS011;6732;51.044;3.746;2022-12-08T09:46:46;14.93;;;11.10;;
13325;SDS011;6732;51.044;3.746;2022-12-08T09:49:17;17.43;;;10.70;;
13325;SDS011;6732;51.044;3.746;2022-12-08T09:51:59;15.80;;;10.17;;
13325;SDS011;6732;51.044;3.746;2022-12-08T09:54:30;17.53;;;11.30;;
13325;SDS011;6732;51.044;3.746;2022-12-08T09:57:00;14.10;;;10.83;;
13325;SDS011;6732;51.044;3.746;2022-12-08T09:59:32;17.40;;;10.33;;
13325;SDS011;6732;51.044;3.746;2022-12-08T10:02:00;16.67;;;11.43;;
13325;SDS011;6732;51.044;3.746;2022-12-08T10:04:28;16.93;;;10.93;;
13325;SDS011;6732;51.044;3.746;2022-12-08T10:06:58;16.93;;;10.80;;
13325;SDS011;6732;51.044;3.746;2022-12-08T10:17:32;21.00;;;11.63;;
13325;SDS011;6732;51.044;3.746;2022-12-08T10:20:12;15.23;;;10.63;;
13325;SDS011;6732;51.044;3.746;2022-12-08T10:22:45;15.77;;;10.13;;
13325;SDS011;6732;51.044;3.746;2022-12-08T10:25:17;13.07;;;9.53;;
13325;SDS011;6732;51.044;3.746;2022-12-08T10:27:50;16.53;;;9.80;;
13325;SDS011;6732;51.044;3.746;2022-12-08T10:30:18;14.87;;;10.90;;
13325;SDS011;6732;51.044;3.746;2022-12-08T10:32:49;17.50;;;9.83;;
13325;SDS011;6732;51.044;3.746;2022-12-08T10:35:17;12.63;;;8.30;;
13325;SDS011;6732;51.044;3.746;2022-12-08T10:37:54;14.90;;;9.00;;
13325;SDS011;6732;51.044;3.746;2022-12-08T10:40:21;12.60;;;8.87;;
13325;SDS011;6732;51.044;3.746;2022-12-08T10:42:49;13.93;;;9.50;;
13325;SDS011;6732;51.044;3.746;2022-12-08T10:45:27;15.33;;;9.70;;
13325;SDS011;6732;51.044;3.746;2022-12-08T10:47:56;12.50;;;9.63;;
13325;SDS011;6732;51.044;3.746;2022-12-08T10:50:35;13.57;;;9.80;;
13325;SDS011;6732;51.044;3.746;2022-12-08T10:55:39;13.47;;;10.20;;
13325;SDS011;6732;51.044;3.746;2022-12-08T10:58:11;13.73;;;9.87;;
13325;SDS011;6732;51.044;3.746;2022-12-08T11:00:53;14.80;;;10.57;;
13325;SDS011;6732;51.044;3.746;2022-12-08T11:03:22;14.03;;;10.63;;
13325;SDS011;6732;51.044;3.746;2022-12-08T11:05:54;17.87;;;11.33;;
13325;SDS011;6732;51.044;3.746;2022-12-08T11:08:20;14.43;;;10.07;;
13325;SDS011;6732;51.044;3.746;2022-12-08T11:10:46;13.63;;;10.33;;
13325;SDS011;6732;51.044;3.746;2022-12-08T11:13:25;15.33;;;10.87;;
13325;SDS011;6732;51.044;3.746;2022-12-08T11:15:54;14.90;;;10.00;;
13325;SDS011;6732;51.044;3.746;2022-12-08T11:21:01;13.37;;;10.17;;
13325;SDS011;6732;51.044;3.746;2022-12-08T11:23:34;14.23;;;9.50;;
13325;SDS011;6732;51.044;3.746;2022-12-08T11:26:05;13.80;;;8.53;;
13325;SDS011;6732;51.044;3.746;2022-12-08T11:28:38;7.57;;;6.30;;
13325;SDS011;6732;51.044;3.746;2022-12-08T11:31:15;7.50;;;5.23;;
13325;SDS011;6732;51.044;3.746;2022-12-08T11:33:55;8.07;;;5.07;;
13325;SDS011;6732;51.044;3.746;2022-12-08T11:36:21;5.83;;;4.63;;
13325;SDS011;6732;51.044;3.746;2022-12-08T11:38:50;7.30;;;4.80;;
13325;SDS011;6732;51.044;3.746;2022-12-08T11:41:23;6.20;;;5.17;;
13325;SDS011;6732;51.044;3.746;2022-12-08T11:44:09;10.10;;;5.63;;
13325;SDS011;6732;51.044;3.746;2022-12-08T11:46:39;8.17;;;4.70;;
13325;SDS011;6732;51.044;3.746;2022-12-08T11:49:13;8.07;;;5.00;;
13325;SDS011;6732;51.044;3.746;2022-12-08T11:51:42;7.03;;;4.60;;
13325;SDS011;6732;51.044;3.746;2022-12-08T11:54:21;6.00;;;4.30;;
13325;SDS011;6732;51.044;3.746;2022-12-08T11:57:12;7.50;;;4.80;;
13325;SDS011;6732;51.044;3.746;2022-12-08T11:59:47;6.30;;;4.07;;
13325;SDS011;6732;51.044;3.746;2022-12-08T12:02:28;7.13;;;4.17;;
13325;SDS011;6732;51.044;3.746;2022-12-08T12:05:02;5.80;;;4.03;;
13325;SDS011;6732;51.044;3.746;2022-12-08T12:07:36;6.43;;;4.40;;
13325;SDS011;6732;51.044;3.746;2022-12-08T12:10:25;5.63;;;4.00;;
13325;SDS011;6732;51.044;3.746;2022-12-08T12:13:08;5.27;;;3.90;;
13325;SDS011;6732;51.044;3.746;2022-12-08T12:18:56;8.43;;;3.83;;
13325;SDS011;6732;51.044;3.746;2022-12-08T12:21:30;6.77;;;4.10;;
13325;SDS011;6732;51.044;3.746;2022-12-08T12:24:03;7.20;;;3.97;;
13325;SDS011;6732;51.044;3.746;2022-12-08T12:26:53;6.57;;;3.43;;
13325;SDS011;6732;51.044;3.746;2022-12-08T12:29:20;4.83;;;3.20;;
13325;SDS011;6732;51.044;3.746;2022-12-08T12:31:58;8.23;;;3.90;;
13325;SDS011;6732;51.044;3.746;2022-12-08T12:37:11;8.40;;;4.20;;
13325;SDS011;6732;51.044;3.746;2022-12-08T12:39:46;5.67;;;3.60;;
13325;SDS011;6732;51.044;3.746;2022-12-08T12:45:33;7.13;;;4.53;;
13325;SDS011;6732;51.044;3.746;2022-12-08T12:50:47;8.23;;;3.50;;
13325;SDS011;6732;51.044;3.746;2022-12-08T12:55:56;4.53;;;2.77;;
13325;SDS011;6732;51.044;3.746;2022-12-08T13:06:40;2.73;;;2.30;;
13325;SDS011;6732;51.044;3.746;2022-12-08T13:11:54;3.60;;;2.50;;
13325;SDS011;6732;51.044;3.746;2022-12-08T13:14:30;3.40;;;2.20;;
13325;SDS011;6732;51.044;3.746;2022-12-08T13:17:00;3.47;;;2.30;;
13325;SDS011;6732;51.044;3.746;2022-12-08T13:19:30;3.87;;;2.53;;
13325;SDS011;6732;51.044;3.746;2022-12-08T13:21:57;1.90;;;1.50;;
13325;SDS011;6732;51.044;3.746;2022-12-08T13:29:36;3.00;;;1.60;;
13325;SDS011;6732;51.044;3.746;2022-12-08T13:32:03;1.90;;;1.50;;
13325;SDS011;6732;51.044;3.746;2022-12-08T13:34:50;2.67;;;1.00;;
13325;SDS011;6732;51.044;3.746;2022-12-08T13:37:41;3.87;;;1.20;;
13325;SDS011;6732;51.044;3.746;2022-12-08T13:40:21;1.30;;;0.90;;
13325;SDS011;6732;51.044;3.746;2022-12-08T13:45:54;2.03;;;1.30;;
13325;SDS011;6732;51.044;3.746;2022-12-08T13:48:27;3.40;;;1.10;;
13325;SDS011;6732;51.044;3.746;2022-12-08T13:51:12;2.03;;;0.73;;
13325;SDS011;6732;51.044;3.746;2022-12-08T13:53:53;0.70;;;0.70;;
13325;SDS011;6732;51.044;3.746;2022-12-08T13:56:24;1.80;;;0.70;;
13325;SDS011;6732;51.044;3.746;2022-12-08T13:58:53;0.77;;;0.73;;
13325;SDS011;6732;51.044;3.746;2022-12-08T14:01:39;2.80;;;1.10;;
13325;SDS011;6732;51.044;3.746;2022-12-08T14:04:11;6.70;;;1.20;;
13325;SDS011;6732;51.044;3.746;2022-12-08T14:06:42;2.20;;;1.17;;
13325;SDS011;6732;51.044;3.746;2022-12-08T14:09:17;3.00;;;1.20;;
13325;SDS011;6732;51.044;3.746;2022-12-08T14:12:07;3.03;;;1.43;;
13325;SDS011;6732;51.044;3.746;2022-12-08T14:14:40;2.83;;;1.07;;
13325;SDS011;6732;51.044;3.746;2022-12-08T14:17:14;2.53;;;1.10;;
13325;SDS011;6732;51.044;3.746;2022-12-08T14:19:43;1.77;;;1.30;;
13325;SDS011;6732;51.044;3.746;2022-12-08T14:22:17;2.20;;;1.70;;
13325;SDS011;6732;51.044;3.746;2022-12-08T14:24:44;2.07;;;1.87;;
13325;SDS011;6732;51.044;3.746;2022-12-08T14:27:16;3.37;;;1.90;;
13325;SDS011;6732;51.044;3.746;2022-12-08T14:29:49;2.50;;;1.90;;
13325;SDS011;6732;51.044;3.746;2022-12-08T14:32:34;5.00;;;2.40;;
13325;SDS011;6732;51.044;3.746;2022-12-08T14:37:33;8.70;;;8.10;;
13325;SDS011;6732;51.044;3.746;2022-12-08T14:42:46;5.70;;;2.90;;
13325;SDS011;6732;51.044;3.746;2022-12-08T14:45:15;3.93;;;3.13;;
13325;SDS011;6732;51.044;3.746;2022-12-08T14:47:42;4.47;;;2.50;;
13325;SDS011;6732;51.044;3.746;2022-12-08T14:53:12;1.87;;;1.70;;
13325;SDS011;6732;51.044;3.746;2022-12-08T14:55:40;4.80;;;3.00;;
13325;SDS011;6732;51.044;3.746;2022-12-08T14:58:21;3.77;;;2.13;;
13325;SDS011;6732;51.044;3.746;2022-12-08T15:00:53;4.30;;;2.63;;
13325;SDS011;6732;51.044;3.746;2022-12-08T15:03:23;2.70;;;2.50;;
13325;SDS011;6732;51.044;3.746;2022-12-08T15:05:52;5.07;;;4.40;;
13325;SDS011;6732;51.044;3.746;2022-12-08T15:08:21;8.63;;;3.80;;
13325;SDS011;6732;51.044;3.746;2022-12-08T15:13:43;5.83;;;3.40;;
13325;SDS011;6732;51.044;3.746;2022-12-08T15:21:52;4.90;;;4.17;;
13325;SDS011;6732;51.044;3.746;2022-12-08T15:24:21;6.23;;;3.50;;
13325;SDS011;6732;51.044;3.746;2022-12-08T15:26:50;3.17;;;2.43;;
13325;SDS011;6732;51.044;3.746;2022-12-08T15:29:26;5.07;;;2.30;;
13325;SDS011;6732;51.044;3.746;2022-12-08T15:31:58;3.27;;;2.30;;
13325;SDS011;6732;51.044;3.746;2022-12-08T15:34:25;4.23;;;2.57;;
13325;SDS011;6732;51.044;3.746;2022-12-08T15:36:52;5.53;;;3.67;;
13325;SDS011;6732;51.044;3.746;2022-12-08T15:39:27;4.13;;;3.83;;
13325;SDS011;6732;51.044;3.746;2022-12-08T15:41:55;5.03;;;3.90;;
13325;SDS011;6732;51.044;3.746;2022-12-08T15:44:21;9.50;;;5.23;;
13325;SDS011;6732;51.044;3.746;2022-12-08T15:46:48;11.67;;;6.90;;
13325;SDS011;6732;51.044;3.746;2022-12-08T15:49:21;10.70;;;7.00;;
13325;SDS011;6732;51.044;3.746;2022-12-08T15:51:48;8.90;;;5.67;;
13325;SDS011;6732;51.044;3.746;2022-12-08T15:54:15;12.00;;;7.23;;
13325;SDS011;6732;51.044;3.746;2022-12-08T15:57:15;13.63;;;8.47;;
13325;SDS011;6732;51.044;3.746;2022-12-08T15:59:42;12.37;;;7.73;;
13325;SDS011;6732;51.044;3.746;2022-12-08T16:02:10;13.83;;;9.20;;
13325;SDS011;6732;51.044;3.746;2022-12-08T16:04:37;15.90;;;8.93;;
13325;SDS011;6732;51.044;3.746;2022-12-08T16:07:04;11.97;;;8.00;;
13325;SDS011;6732;51.044;3.746;2022-12-08T16:09:32;9.97;;;7.43;;
13325;SDS011;6732;51.044;3.746;2022-12-08T16:12:03;11.23;;;6.87;;
13325;SDS011;6732;51.044;3.746;2022-12-08T16:14:58;9.43;;;7.07;;
13325;SDS011;6732;51.044;3.746;2022-12-08T16:17:24;10.43;;;6.90;;
13325;SDS011;6732;51.044;3.746;2022-12-08T16:19:51;10.03;;;5.97;;
13325;SDS011;6732;51.044;3.746;2022-12-08T16:22:17;7.77;;;6.57;;
13325;SDS011;6732;51.044;3.746;2022-12-08T16:24:45;9.83;;;7.00;;
13325;SDS011;6732;51.044;3.746;2022-12-08T16:27:17;8.83;;;7.43;;
13325;SDS011;6732;51.044;3.746;2022-12-08T16:29:49;8.83;;;7.13;;
13325;SDS011;6732;51.044;3.746;2022-12-08T16:32:15;9.17;;;6.87;;
13325;SDS011;6732;51.044;3.746;2022-12-08T16:34:42;9.40;;;6.97;;
13325;SDS011;6732;51.044;3.746;2022-12-08T16:37:13;8.87;;;7.67;;
13325;SDS011;6732;51.044;3.746;2022-12-08T16:39:46;9.07;;;8.17;;
13325;SDS011;6732;51.044;3.746;2022-12-08T16:42:23;9.63;;;8.37;;